Time;durP1;ratioP1;P1;durP2;ratioP2;P2;SDS_P1;SDS_P2;PMS_P1;PMS_P2;Temp;Humidity;BMP_temperature;BMP_pressure;BME280_temperature;BME280_humidity;BME280_pressure;Samples;Min_cycle;Max_cycle;Signal;HPM_P1;HPM_P2
2022/12/14 00:01:12;;;;;;;11.85;8.00;;;-4.40;99.90;;;;;;5099572;27;19915;-32
2022/12/14 00:03:37;;;;;;;8.32;6.35;;;-4.40;99.90;;;;;;5099326;27;20032;-36
2022/12/14 00:06:11;;;;;;;12.75;7.40;;;-4.30;99.90;;;;;;5102344;27;20122;-33
2022/12/14 00:08:37;;;;;;;13.98;8.43;;;-4.40;99.90;;;;;;5109130;27;20028;-34
2022/12/14 00:11:02;;;;;;;9.60;6.80;;;-4.30;99.90;;;;;;5102747;28;20561;-34
2022/12/14 00:13:28;;;;;;;11.18;7.57;;;-4.30;99.90;;;;;;5100562;27;20411;-33
2022/12/14 00:15:53;;;;;;;9.25;7.63;;;-4.30;99.90;;;;;;5101199;27;20042;-34
2022/12/14 00:18:19;;;;;;;19.38;7.75;;;-4.30;99.90;;;;;;5104446;27;20484;-35
2022/12/14 00:20:44;;;;;;;12.70;7.43;;;-4.30;99.90;;;;;;5099473;27;20493;-31
2022/12/14 00:23:10;;;;;;;11.65;8.60;;;-4.30;99.90;;;;;;5102695;27;20089;-33
2022/12/14 00:25:36;;;;;;;13.57;8.27;;;-4.30;99.90;;;;;;5106016;27;20034;-30
2022/12/14 00:28:01;;;;;;;17.27;9.05;;;-4.30;99.90;;;;;;5104143;27;20385;-35
2022/12/14 00:30:27;;;;;;;10.88;6.80;;;-4.30;99.90;;;;;;5103466;27;20034;-32
2022/12/14 00:32:52;;;;;;;9.68;8.13;;;-4.20;99.90;;;;;;5105111;27;20027;-32
2022/12/14 00:35:18;;;;;;;10.77;7.13;;;-4.30;99.90;;;;;;5098576;27;20686;-33
2022/12/14 00:37:44;;;;;;;9.75;6.60;;;-4.20;99.90;;;;;;5106239;27;20822;-32
2022/12/14 00:40:11;;;;;;;9.73;7.43;;;-4.30;99.90;;;;;;5093917;27;20404;-33
2022/12/14 00:42:36;;;;;;;9.48;6.78;;;-4.30;99.90;;;;;;5090383;27;20143;-32
2022/12/14 00:45:04;;;;;;;7.85;6.07;;;-4.30;99.90;;;;;;5093254;27;20043;-35
2022/12/14 00:47:29;;;;;;;10.23;8.10;;;-4.20;99.90;;;;;;5090498;27;20035;-31
2022/12/14 00:49:58;;;;;;;10.45;7.55;;;-4.20;99.90;;;;;;5092993;27;20028;-33
2022/12/14 00:52:23;;;;;;;16.80;7.93;;;-4.20;99.90;;;;;;5091259;27;20522;-30
2022/12/14 00:54:49;;;;;;;15.52;9.00;;;-4.20;99.90;;;;;;5091295;27;20035;-32
2022/12/14 00:57:15;;;;;;;18.70;9.48;;;-4.20;99.90;;;;;;5089439;27;20039;-34
2022/12/14 00:59:40;;;;;;;11.23;6.20;;;-4.20;99.90;;;;;;5092032;27;21774;-29
2022/12/14 01:02:06;;;;;;;15.82;5.93;;;-4.20;99.90;;;;;;5091560;27;20043;-34
2022/12/14 01:04:32;;;;;;;12.15;7.78;;;-4.10;99.90;;;;;;5092803;27;20122;-33
2022/12/14 01:06:57;;;;;;;14.27;8.63;;;-4.10;99.90;;;;;;5091168;27;20031;-31
2022/12/14 01:09:25;;;;;;;9.02;5.47;;;-4.10;99.90;;;;;;5090873;27;20560;-32
2022/12/14 01:11:52;;;;;;;13.30;6.20;;;-4.00;99.90;;;;;;5091419;27;20029;-29
2022/12/14 01:14:18;;;;;;;9.23;6.55;;;-4.10;99.90;;;;;;5091505;27;20482;-34
2022/12/14 01:16:44;;;;;;;6.20;5.63;;;-4.10;99.90;;;;;;5090988;27;20420;-34
2022/12/14 01:19:11;;;;;;;7.90;6.65;;;-4.10;99.90;;;;;;5092385;27;20024;-34
2022/12/14 01:21:37;;;;;;;10.60;7.30;;;-4.00;99.90;;;;;;5091467;27;20032;-29
2022/12/14 01:24:04;;;;;;;12.07;7.38;;;-4.00;99.90;;;;;;5089618;27;20112;-30
2022/12/14 01:26:32;;;;;;;12.20;8.48;;;-4.00;99.90;;;;;;5091823;27;20046;-34
2022/12/14 01:28:58;;;;;;;10.48;8.23;;;-4.00;99.90;;;;;;5097540;27;20016;-35
2022/12/14 01:31:30;;;;;;;7.75;6.45;;;-4.00;99.90;;;;;;5102949;27;20035;-35
2022/12/14 01:33:56;;;;;;;15.10;9.65;;;-4.00;99.90;;;;;;5104114;27;20036;-34
2022/12/14 01:36:27;;;;;;;11.98;7.07;;;-4.00;99.90;;;;;;5098409;27;20490;-34
2022/12/14 01:38:55;;;;;;;11.40;6.65;;;-4.00;99.90;;;;;;5095083;28;20477;-35
2022/12/14 01:41:30;;;;;;;11.63;7.10;;;-4.00;99.90;;;;;;5104407;27;20061;-31
2022/12/14 01:44:01;;;;;;;8.10;6.28;;;-4.00;99.90;;;;;;5098763;27;20375;-32
2022/12/14 01:46:44;;;;;;;13.63;9.57;;;-4.00;99.90;;;;;;5106049;28;20024;-33
2022/12/14 01:49:18;;;;;;;14.15;9.70;;;-4.00;99.90;;;;;;5115711;27;20042;-33
2022/12/14 01:51:50;;;;;;;12.90;9.68;;;-4.10;99.90;;;;;;5098592;28;20034;-35
2022/12/14 01:54:17;;;;;;;11.90;8.13;;;-4.10;99.90;;;;;;5101357;28;20697;-34
2022/12/14 01:56:45;;;;;;;15.43;8.98;;;-4.10;99.90;;;;;;5103258;28;20122;-32
2022/12/14 01:59:17;;;;;;;7.50;6.65;;;-4.20;99.90;;;;;;5103581;28;20507;-34
2022/12/14 02:01:43;;;;;;;10.23;6.75;;;-4.10;99.90;;;;;;5088128;28;20743;-30
2022/12/14 02:04:12;;;;;;;7.65;5.95;;;-4.10;99.90;;;;;;5090862;28;20503;-33
2022/12/14 02:06:41;;;;;;;12.45;8.18;;;-4.10;99.90;;;;;;5091742;28;20070;-33
2022/12/14 02:09:10;;;;;;;12.85;7.70;;;-4.00;99.90;;;;;;5092483;28;20019;-33
2022/12/14 02:12:06;;;;;;;10.48;7.03;;;-4.00;99.90;;;;;;5091796;28;20076;-36
2022/12/14 02:14:33;;;;;;;7.72;6.93;;;-4.00;99.90;;;;;;5092611;28;20119;-30
2022/12/14 02:16:59;;;;;;;13.07;8.48;;;-4.00;99.90;;;;;;5092615;28;20436;-33
2022/12/14 02:19:26;;;;;;;16.45;10.45;;;-4.00;99.90;;;;;;5092619;28;20196;-34
2022/12/14 02:21:54;;;;;;;10.23;7.03;;;-4.00;99.90;;;;;;5091033;28;20035;-33
2022/12/14 02:24:23;;;;;;;11.75;7.78;;;-4.00;99.90;;;;;;5095927;28;20161;-32
2022/12/14 02:27:08;;;;;;;8.10;6.80;;;-4.00;99.90;;;;;;5101106;28;20020;-32
2022/12/14 02:30:05;;;;;;;10.30;6.65;;;-4.00;99.90;;;;;;5098451;28;20072;-33
2022/12/14 02:32:59;;;;;;;12.65;7.85;;;-4.00;99.90;;;;;;5090436;28;20036;-33
2022/12/14 02:35:45;;;;;;;11.27;8.32;;;-4.00;99.90;;;;;;5092428;28;20039;-32
2022/12/14 02:38:26;;;;;;;17.05;9.32;;;-4.00;99.90;;;;;;5092998;28;20038;-30
2022/12/14 02:40:54;;;;;;;14.05;8.65;;;-4.00;99.90;;;;;;5093860;28;20177;-32
2022/12/14 02:43:20;;;;;;;20.50;12.38;;;-4.00;99.90;;;;;;5094579;28;20468;-30
2022/12/14 02:46:02;;;;;;;7.88;6.35;;;-4.00;99.90;;;;;;5096103;28;20025;-30
2022/12/14 02:48:39;;;;;;;7.53;6.20;;;-4.00;99.90;;;;;;5091453;28;20024;-31
2022/12/14 02:51:21;;;;;;;13.05;8.27;;;-4.00;99.90;;;;;;5102937;28;20024;-30
2022/12/14 02:53:55;;;;;;;13.02;8.70;;;-3.90;99.90;;;;;;5104219;28;20088;-31
2022/12/14 02:56:30;;;;;;;17.42;9.45;;;-3.90;99.90;;;;;;5106165;28;20034;-32
2022/12/14 02:58:56;;;;;;;20.15;11.55;;;-3.90;99.90;;;;;;5101243;28;20027;-34
2022/12/14 03:01:26;;;;;;;9.70;7.90;;;-4.00;99.90;;;;;;5102128;28;20031;-33
2022/12/14 03:03:52;;;;;;;8.65;7.28;;;-4.00;99.90;;;;;;5102442;28;20019;-31
2022/12/14 03:06:26;;;;;;;16.83;8.75;;;-4.00;99.90;;;;;;5104142;27;20144;-31
2022/12/14 03:09:02;;;;;;;13.02;7.75;;;-3.90;99.90;;;;;;5104195;27;20055;-32
2022/12/14 03:11:47;;;;;;;10.85;8.07;;;-3.90;99.90;;;;;;5108653;27;20413;-33
2022/12/14 03:14:30;;;;;;;14.55;8.32;;;-3.90;99.90;;;;;;5107865;27;20086;-30
2022/12/14 03:17:04;;;;;;;14.98;9.38;;;-3.90;99.90;;;;;;5102992;27;20687;-29
2022/12/14 03:19:35;;;;;;;13.73;8.07;;;-3.90;99.90;;;;;;5104740;27;20040;-30
2022/12/14 03:22:08;;;;;;;10.20;7.20;;;-3.90;99.90;;;;;;5111150;27;20077;-33
2022/12/14 03:24:42;;;;;;;16.45;8.02;;;-3.90;99.90;;;;;;5104202;27;20082;-33
2022/12/14 03:27:16;;;;;;;7.75;6.88;;;-3.90;99.90;;;;;;5107085;27;20062;-33
2022/12/14 03:29:51;;;;;;;14.00;9.05;;;-3.90;99.90;;;;;;5104443;27;20059;-31
2022/12/14 03:32:22;;;;;;;11.32;7.60;;;-3.90;99.90;;;;;;5105836;27;20035;-31
2022/12/14 03:35:06;;;;;;;14.63;8.80;;;-3.90;99.90;;;;;;5103239;28;20033;-30
2022/12/14 03:37:49;;;;;;;11.32;7.45;;;-3.80;99.90;;;;;;5106039;27;20023;-31
2022/12/14 03:40:15;;;;;;;9.63;7.82;;;-3.80;99.90;;;;;;5106121;27;20682;-30
2022/12/14 03:42:57;;;;;;;9.85;6.75;;;-3.80;99.90;;;;;;5104216;27;20040;-31
2022/12/14 03:45:28;;;;;;;11.77;8.00;;;-3.70;99.90;;;;;;5105644;28;20078;-32
2022/12/14 03:48:00;;;;;;;20.40;11.38;;;-3.70;99.90;;;;;;5113081;27;20163;-30
2022/12/14 03:50:50;;;;;;;12.15;8.10;;;-3.70;99.90;;;;;;5104366;27;20020;-34
2022/12/14 03:53:32;;;;;;;17.80;8.35;;;-3.70;99.90;;;;;;5098581;27;20024;-31
2022/12/14 03:56:03;;;;;;;13.38;7.07;;;-3.70;99.90;;;;;;5113027;27;20480;-32
2022/12/14 03:59:00;;;;;;;16.13;8.60;;;-3.70;99.90;;;;;;5104425;27;20024;-30
2022/12/14 04:01:57;;;;;;;14.27;9.10;;;-3.70;99.90;;;;;;5101644;27;20112;-30
2022/12/14 04:04:28;;;;;;;18.02;11.30;;;-3.70;99.90;;;;;;5100871;27;20023;-30
2022/12/14 04:07:18;;;;;;;19.55;9.80;;;-3.70;99.90;;;;;;5105769;27;20031;-32
2022/12/14 04:09:56;;;;;;;11.55;7.15;;;-3.70;99.90;;;;;;5102415;27;20016;-30
2022/12/14 04:21:24;;;;;;;20.95;9.88;;;-3.80;99.90;;;;;;5087479;27;20043;-33
2022/12/14 04:27:01;;;;;;;13.15;8.27;;;-3.80;99.90;;;;;;5105011;27;20134;-30
2022/12/14 04:32:40;;;;;;;16.65;8.75;;;-3.80;99.90;;;;;;5096385;27;20750;-31
2022/12/14 04:35:15;;;;;;;20.10;12.73;;;-3.80;99.90;;;;;;5102148;28;20426;-32
2022/12/14 04:37:46;;;;;;;12.40;8.73;;;-3.80;99.90;;;;;;5104146;27;20107;-29
2022/12/14 04:40:18;;;;;;;17.63;10.80;;;-3.80;99.90;;;;;;5097659;28;20046;-33
2022/12/14 04:43:02;;;;;;;12.95;7.93;;;-3.80;99.90;;;;;;5103368;28;20036;-31
2022/12/14 04:45:52;;;;;;;17.02;9.48;;;-3.80;99.90;;;;;;5104151;27;20958;-30
2022/12/14 04:48:50;;;;;;;12.85;8.80;;;-3.80;99.90;;;;;;5095506;28;20632;-30
2022/12/14 04:51:30;;;;;;;19.85;11.45;;;-3.80;99.90;;;;;;5104994;27;20027;-30
2022/12/14 04:54:02;;;;;;;18.00;10.38;;;-3.80;99.90;;;;;;5099661;27;20042;-31
2022/12/14 04:56:49;;;;;;;14.57;10.23;;;-3.80;99.90;;;;;;5097560;27;20159;-30
2022/12/14 04:59:15;;;;;;;15.38;8.80;;;-3.80;99.90;;;;;;5095612;27;20042;-33
2022/12/14 05:02:16;;;;;;;11.45;7.97;;;-3.80;99.90;;;;;;5097653;27;20039;-31
2022/12/14 05:04:56;;;;;;;14.43;10.13;;;-3.80;99.90;;;;;;5105652;27;20023;-31
2022/12/14 05:07:38;;;;;;;16.25;10.35;;;-3.80;99.90;;;;;;5102001;27;20084;-30
2022/12/14 05:10:25;;;;;;;15.82;9.88;;;-3.80;99.90;;;;;;5113124;27;20024;-31
2022/12/14 05:13:22;;;;;;;13.13;9.15;;;-3.80;99.90;;;;;;5101095;27;20039;-31
2022/12/14 05:15:53;;;;;;;10.70;9.00;;;-3.80;99.90;;;;;;5102661;27;20387;-30
2022/12/14 05:18:19;;;;;;;16.02;7.15;;;-3.80;99.90;;;;;;5108768;27;20019;-31
2022/12/14 05:20:46;;;;;;;19.45;10.27;;;-3.70;99.90;;;;;;5100314;27;20032;-31
2022/12/14 05:23:12;;;;;;;15.43;7.65;;;-3.70;99.90;;;;;;5101925;27;20080;-32
2022/12/14 05:25:38;;;;;;;12.68;8.32;;;-3.70;99.90;;;;;;5103918;27;20474;-33
2022/12/14 05:28:03;;;;;;;20.23;9.05;;;-3.70;99.90;;;;;;5104053;27;20031;-30
2022/12/14 05:30:29;;;;;;;18.25;9.65;;;-3.70;99.90;;;;;;5104307;27;20416;-34
2022/12/14 05:32:55;;;;;;;13.73;9.73;;;-3.70;99.90;;;;;;5106282;27;20393;-31
2022/12/14 05:35:21;;;;;;;11.25;8.45;;;-3.60;99.90;;;;;;5098265;28;20243;-33
2022/12/14 05:37:46;;;;;;;17.98;8.95;;;-3.60;99.90;;;;;;5107098;27;20032;-31
2022/12/14 05:40:12;;;;;;;12.55;8.00;;;-3.70;99.90;;;;;;5102215;27;20501;-31
2022/12/14 05:42:38;;;;;;;9.57;7.32;;;-3.70;99.90;;;;;;5105785;28;20120;-31
2022/12/14 05:45:04;;;;;;;20.63;9.73;;;-3.60;99.90;;;;;;5093518;28;21683;-31
2022/12/14 05:47:29;;;;;;;21.90;11.63;;;-3.60;99.90;;;;;;5102938;28;20444;-31
2022/12/14 05:49:55;;;;;;;12.52;8.20;;;-3.60;99.90;;;;;;5104075;28;20457;-33
2022/12/14 05:52:24;;;;;;;13.18;8.77;;;-3.60;99.90;;;;;;5101655;28;20063;-32
2022/12/14 05:54:50;;;;;;;11.27;8.85;;;-3.60;99.90;;;;;;5108984;28;20114;-30
2022/12/14 05:57:15;;;;;;;12.35;8.57;;;-3.70;99.90;;;;;;5109845;28;20110;-33
2022/12/14 05:59:41;;;;;;;10.00;8.90;;;-3.60;99.90;;;;;;5102555;28;20024;-31
2022/12/14 06:02:07;;;;;;;15.27;8.30;;;-3.50;99.90;;;;;;5094841;28;20032;-30
2022/12/14 06:04:32;;;;;;;13.93;9.00;;;-3.50;99.90;;;;;;5100027;28;20538;-32
2022/12/14 06:06:58;;;;;;;26.88;13.20;;;-3.60;99.90;;;;;;5100568;28;20024;-33
2022/12/14 06:09:24;;;;;;;16.45;9.13;;;-3.60;99.90;;;;;;5103225;28;20098;-30
2022/12/14 06:11:49;;;;;;;9.38;6.93;;;-3.60;99.90;;;;;;5092104;28;20027;-33
2022/12/14 06:14:15;;;;;;;11.02;8.30;;;-3.60;99.90;;;;;;5107588;28;20034;-32
2022/12/14 06:16:43;;;;;;;17.00;11.55;;;-3.50;99.90;;;;;;5100591;28;20426;-32
2022/12/14 06:19:10;;;;;;;19.13;10.57;;;-3.50;99.90;;;;;;5102268;27;20194;-31
2022/12/14 06:21:37;;;;;;;14.43;9.75;;;-3.50;99.90;;;;;;5102696;28;20031;-32
2022/12/14 06:24:04;;;;;;;19.67;10.55;;;-3.60;99.90;;;;;;5097640;28;20038;-32
2022/12/14 06:26:31;;;;;;;16.42;10.23;;;-3.60;99.90;;;;;;5102234;28;20028;-31
2022/12/14 06:28:57;;;;;;;21.00;12.57;;;-3.60;99.90;;;;;;5105032;28;20031;-32
2022/12/14 06:31:28;;;;;;;16.30;8.85;;;-3.60;99.90;;;;;;5101364;28;20182;-33
2022/12/14 06:33:57;;;;;;;49.63;23.92;;;-3.50;99.90;;;;;;5101059;28;20105;-34
2022/12/14 06:36:28;;;;;;;18.88;11.55;;;-3.50;99.90;;;;;;5103316;28;20039;-31
2022/12/14 06:38:54;;;;;;;22.52;10.98;;;-3.50;99.90;;;;;;5099358;28;20654;-33
2022/12/14 06:41:22;;;;;;;22.55;12.68;;;-3.50;99.90;;;;;;5108233;27;20052;-32
2022/12/14 06:43:48;;;;;;;18.47;9.73;;;-3.50;99.90;;;;;;5105370;27;20023;-34
2022/12/14 06:46:16;;;;;;;12.63;8.23;;;-3.50;99.90;;;;;;5108635;28;20352;-31
2022/12/14 06:48:42;;;;;;;19.05;9.98;;;-3.50;99.90;;;;;;5100528;27;20035;-30
2022/12/14 06:51:08;;;;;;;14.85;9.02;;;-3.60;99.90;;;;;;5095449;27;20020;-33
2022/12/14 06:53:34;;;;;;;15.68;9.80;;;-3.50;99.90;;;;;;5104241;27;20021;-31
2022/12/14 06:56:11;;;;;;;21.95;11.77;;;-3.50;99.90;;;;;;5106539;27;20034;-30
2022/12/14 06:58:37;;;;;;;23.77;10.95;;;-3.50;99.90;;;;;;5107275;27;20035;-32
2022/12/14 07:01:06;;;;;;;21.30;10.70;;;-3.50;99.90;;;;;;5099810;27;20027;-34
2022/12/14 07:03:32;;;;;;;14.80;10.13;;;-3.50;99.90;;;;;;5112656;27;20027;-34
2022/12/14 07:05:59;;;;;;;15.00;10.10;;;-3.50;99.90;;;;;;5102470;27;20488;-33
2022/12/14 07:08:26;;;;;;;16.98;10.75;;;-3.50;99.90;;;;;;5106479;27;20103;-32
2022/12/14 07:10:52;;;;;;;13.77;9.20;;;-3.50;99.90;;;;;;5107159;27;20051;-33
2022/12/14 07:13:18;;;;;;;1.70;1.67;;;-3.40;99.90;;;;;;5097350;27;20575;-32
2022/12/14 07:15:50;;;;;;;18.13;10.20;;;-3.40;99.90;;;;;;5102785;28;20034;-32
2022/12/14 07:18:15;;;;;;;13.38;9.45;;;-3.40;99.90;;;;;;5102401;27;20028;-32
2022/12/14 07:20:41;;;;;;;19.65;10.15;;;-3.40;99.90;;;;;;5098920;27;20081;-31
2022/12/14 07:23:07;;;;;;;14.88;10.75;;;-3.40;99.90;;;;;;5101366;27;20022;-31
2022/12/14 07:25:33;;;;;;;10.68;7.57;;;-3.40;99.90;;;;;;5095720;27;20024;-34
2022/12/14 07:27:58;;;;;;;20.98;7.95;;;-3.40;99.90;;;;;;5107992;28;20400;-30
2022/12/14 07:30:24;;;;;;;15.07;9.38;;;-3.30;99.90;;;;;;5100956;27;20028;-34
2022/12/14 07:32:49;;;;;;;11.57;7.63;;;-3.30;99.90;;;;;;5100506;28;20158;-31
2022/12/14 07:35:15;;;;;;;19.58;11.45;;;-3.30;99.90;;;;;;5102577;28;20430;-32
2022/12/14 07:37:41;;;;;;;15.63;8.60;;;-3.30;99.90;;;;;;5098957;28;20080;-31
2022/12/14 07:40:07;;;;;;;18.45;10.45;;;-3.30;99.90;;;;;;5104220;27;20549;-33
2022/12/14 07:42:33;;;;;;;17.63;11.45;;;-3.30;99.90;;;;;;5104104;28;20059;-32
2022/12/14 07:45:00;;;;;;;22.17;11.35;;;-3.30;99.90;;;;;;5111632;27;20055;-30
2022/12/14 07:47:28;;;;;;;18.05;10.05;;;-3.30;99.90;;;;;;5096772;28;21725;-31
2022/12/14 07:49:54;;;;;;;25.55;13.00;;;-3.30;99.90;;;;;;5101236;28;20023;-31
2022/12/14 07:52:20;;;;;;;22.98;11.48;;;-3.40;99.90;;;;;;5099300;28;20072;-30
2022/12/14 07:54:45;;;;;;;24.95;12.65;;;-3.40;99.90;;;;;;5105305;28;20042;-31
2022/12/14 07:57:11;;;;;;;15.15;10.85;;;-3.30;99.90;;;;;;5102731;27;20733;-31
2022/12/14 07:59:36;;;;;;;24.88;13.20;;;-3.30;99.90;;;;;;5104254;27;20039;-33
2022/12/14 08:02:02;;;;;;;13.93;8.70;;;-3.30;99.90;;;;;;5101008;27;20036;-32
2022/12/14 08:04:28;;;;;;;19.60;10.38;;;-3.30;99.90;;;;;;5102776;28;20506;-31
2022/12/14 08:06:54;;;;;;;17.00;10.13;;;-3.30;99.90;;;;;;5100170;28;20051;-30
2022/12/14 08:09:19;;;;;;;20.45;11.93;;;-3.30;99.90;;;;;;5098244;28;20016;-30
2022/12/14 08:11:45;;;;;;;14.20;9.27;;;-3.20;99.90;;;;;;5104563;28;20096;-33
2022/12/14 08:14:16;;;;;;;20.35;10.82;;;-3.20;99.90;;;;;;5100669;28;20094;-33
2022/12/14 08:16:43;;;;;;;18.42;8.73;;;-3.20;99.90;;;;;;5105374;28;20031;-32
2022/12/14 08:19:09;;;;;;;23.77;13.30;;;-3.20;99.90;;;;;;5103712;28;20107;-31
2022/12/14 08:21:35;;;;;;;18.48;11.65;;;-3.10;99.90;;;;;;5103447;27;20036;-32
2022/12/14 08:24:01;;;;;;;7.78;5.22;;;-3.10;99.90;;;;;;5103482;27;20031;-31
2022/12/14 08:26:26;;;;;;;62.03;29.70;;;-3.10;99.90;;;;;;5096574;27;20148;-35
2022/12/14 08:28:54;;;;;;;32.35;16.98;;;-3.00;99.90;;;;;;5097037;27;20023;-33
2022/12/14 08:31:22;;;;;;;27.20;12.00;;;-3.00;99.90;;;;;;5101045;27;20039;-32
2022/12/14 08:33:48;;;;;;;24.23;14.55;;;-3.00;99.90;;;;;;5101192;27;20533;-30
2022/12/14 08:36:20;;;;;;;20.52;10.10;;;-2.90;99.90;;;;;;5096916;28;20088;-30
2022/12/14 08:38:51;;;;;;;19.23;8.82;;;-3.00;99.90;;;;;;5094540;28;20035;-35
2022/12/14 08:41:17;;;;;;;20.40;10.32;;;-2.90;99.90;;;;;;5102082;27;20872;-31
2022/12/14 08:43:43;;;;;;;13.35;8.75;;;-2.90;99.90;;;;;;5097348;27;20032;-30
2022/12/14 08:46:09;;;;;;;17.85;10.65;;;-2.80;99.90;;;;;;5104678;28;20028;-32
2022/12/14 08:48:35;;;;;;;19.35;10.02;;;-2.90;99.90;;;;;;5102060;28;20500;-30
2022/12/14 08:51:06;;;;;;;25.52;13.13;;;-2.90;99.90;;;;;;5102435;27;20045;-32
2022/12/14 08:53:32;;;;;;;22.55;11.73;;;-2.90;99.90;;;;;;5104234;28;20022;-33
2022/12/14 08:55:58;;;;;;;16.42;10.10;;;-2.80;99.90;;;;;;5097124;27;20051;-29
2022/12/14 08:58:25;;;;;;;21.08;11.73;;;-2.80;99.90;;;;;;5100905;27;20031;-30
2022/12/14 09:00:59;;;;;;;23.92;14.32;;;-2.80;99.90;;;;;;5097809;27;20823;-31
2022/12/14 09:03:24;;;;;;;17.70;11.05;;;-2.80;99.90;;;;;;5097210;27;20020;-32
2022/12/14 09:05:50;;;;;;;17.48;11.05;;;-2.80;99.90;;;;;;5092520;27;20038;-31
2022/12/14 09:08:16;;;;;;;19.65;10.25;;;-2.80;99.90;;;;;;5103716;27;20024;-30
2022/12/14 09:10:49;;;;;;;15.05;9.02;;;-2.80;99.90;;;;;;5100107;28;20020;-32
2022/12/14 09:13:14;;;;;;;13.38;9.38;;;-2.70;99.90;;;;;;5102287;27;20076;-30
2022/12/14 09:15:40;;;;;;;13.23;9.20;;;-2.70;99.90;;;;;;5104462;27;20035;-32
2022/12/14 09:18:06;;;;;;;17.75;11.70;;;-2.70;99.90;;;;;;5104152;27;20675;-32
2022/12/14 09:20:31;;;;;;;18.20;11.82;;;-2.60;99.90;;;;;;5104265;27;20408;-29
2022/12/14 09:22:57;;;;;;;23.55;13.95;;;-2.60;99.90;;;;;;5098321;27;20035;-32
2022/12/14 09:25:22;;;;;;;20.08;10.73;;;-2.50;99.90;;;;;;5099019;28;20076;-32
2022/12/14 09:27:48;;;;;;;19.67;10.15;;;-2.50;99.90;;;;;;5100903;27;20028;-29
2022/12/14 09:30:13;;;;;;;25.50;14.23;;;-2.50;99.90;;;;;;5100655;27;20217;-32
2022/12/14 09:32:40;;;;;;;23.95;13.40;;;-2.40;99.90;;;;;;5098062;27;20051;-31
2022/12/14 09:35:05;;;;;;;24.63;12.15;;;-2.40;99.90;;;;;;5105209;28;20127;-30
2022/12/14 09:37:32;;;;;;;20.05;12.38;;;-2.40;99.90;;;;;;5100299;28;20746;-29
2022/12/14 09:39:58;;;;;;;23.88;13.35;;;-2.40;99.90;;;;;;5101244;28;20058;-29
2022/12/14 09:42:52;;;;;;;31.25;14.88;;;-2.40;99.90;;;;;;5100221;28;20415;-31
2022/12/14 09:45:28;;;;;;;21.08;11.57;;;-2.40;99.90;;;;;;5101404;28;20034;-32
2022/12/14 09:48:02;;;;;;;17.25;11.35;;;-2.40;99.90;;;;;;5102155;28;20043;-32
2022/12/14 09:50:29;;;;;;;20.52;10.95;;;-2.40;99.90;;;;;;5102591;28;20054;-29
2022/12/14 09:53:00;;;;;;;23.38;12.32;;;-2.40;99.90;;;;;;5099815;28;20024;-34
2022/12/14 09:55:34;;;;;;;15.75;11.43;;;-2.40;99.90;;;;;;5100136;28;20028;-33
2022/12/14 09:58:26;;;;;;;20.17;12.43;;;-2.40;99.90;;;;;;5097765;28;20107;-29
2022/12/14 10:01:06;;;;;;;19.25;10.85;;;-2.30;99.90;;;;;;5102228;28;20039;-30
2022/12/14 10:04:16;;;;;;;21.85;13.73;;;-2.30;99.90;;;;;;5098149;28;20031;-31
2022/12/14 10:07:05;;;;;;;22.63;12.77;;;-2.20;99.90;;;;;;5101300;28;20027;-33
2022/12/14 10:09:45;;;;;;;23.55;13.00;;;-2.20;99.90;;;;;;5102248;28;20066;-31
2022/12/14 10:12:26;;;;;;;17.45;11.38;;;-2.20;99.90;;;;;;5099595;28;20435;-32
2022/12/14 10:15:17;;;;;;;20.13;13.38;;;-2.20;99.90;;;;;;5099311;28;20100;-31
2022/12/14 10:18:17;;;;;;;18.38;11.10;;;-2.10;99.90;;;;;;5096225;27;20123;-32
2022/12/14 10:21:05;;;;;;;18.30;10.40;;;-2.10;99.90;;;;;;5101343;27;20485;-32
2022/12/14 10:23:31;;;;;;;14.85;9.07;;;-2.10;99.90;;;;;;5105285;27;20031;-32
2022/12/14 10:26:02;;;;;;;28.50;13.75;;;-2.10;99.90;;;;;;5093232;27;20031;-32
2022/12/14 10:28:52;;;;;;;18.25;11.90;;;-2.00;99.90;;;;;;5105660;27;20019;-31
2022/12/14 10:31:43;;;;;;;21.95;11.57;;;-2.00;99.90;;;;;;5094546;27;20159;-31
2022/12/14 10:34:21;;;;;;;17.20;10.13;;;-2.00;99.90;;;;;;5106877;27;20079;-30
2022/12/14 10:37:08;;;;;;;15.75;9.38;;;-2.00;99.90;;;;;;5109479;27;20027;-30
2022/12/14 10:40:05;;;;;;;14.60;11.93;;;-1.90;99.90;;;;;;5105075;28;20037;-30
2022/12/14 10:42:52;;;;;;;18.38;12.60;;;-1.90;99.90;;;;;;5103372;28;20085;-33
2022/12/14 10:45:23;;;;;;;11.30;7.60;;;-1.80;99.90;;;;;;5098789;28;20496;-29
2022/12/14 10:47:59;;;;;;;16.15;10.07;;;-1.70;99.90;;;;;;5101798;27;20020;-31
2022/12/14 10:50:44;;;;;;;19.70;9.60;;;-1.70;99.90;;;;;;5104626;28;20020;-32
2022/12/14 10:53:16;;;;;;;19.33;10.65;;;-1.60;99.90;;;;;;5100611;28;20039;-30
2022/12/14 10:55:43;;;;;;;17.10;9.80;;;-1.60;99.90;;;;;;5101636;28;20039;-30
2022/12/14 10:58:12;;;;;;;16.20;10.90;;;-1.50;99.90;;;;;;5107042;28;20055;-30
2022/12/14 11:00:38;;;;;;;19.25;12.60;;;-1.60;99.90;;;;;;5098785;28;20026;-30
2022/12/14 11:03:12;;;;;;;15.98;10.93;;;-1.50;99.90;;;;;;5106641;28;20031;-29
2022/12/14 11:05:46;;;;;;;23.15;13.30;;;-1.60;99.90;;;;;;5122172;27;20031;-30
2022/12/14 11:08:37;;;;;;;25.15;11.93;;;-1.50;99.90;;;;;;5105096;27;20062;-30
2022/12/14 11:11:17;;;;;;;18.10;11.35;;;-1.50;99.90;;;;;;5103672;28;20024;-31
2022/12/14 11:13:51;;;;;;;22.42;12.77;;;-1.50;99.90;;;;;;5100211;28;20115;-30
2022/12/14 11:16:40;;;;;;;16.98;11.73;;;-1.50;99.90;;;;;;5110550;27;20108;-32
2022/12/14 11:19:17;;;;;;;22.38;12.35;;;-1.50;99.90;;;;;;5099476;28;20115;-31
2022/12/14 11:21:44;;;;;;;17.02;11.27;;;-1.50;99.90;;;;;;5103629;28;20654;-31
2022/12/14 11:24:27;;;;;;;18.23;11.15;;;-1.40;99.90;;;;;;5106859;28;20051;-31
2022/12/14 11:26:57;;;;;;;14.63;10.95;;;-1.40;99.90;;;;;;5104044;27;20051;-31
2022/12/14 11:29:31;;;;;;;18.55;10.98;;;-1.40;99.90;;;;;;5103557;28;20039;-30
2022/12/14 11:31:59;;;;;;;17.67;10.05;;;-1.30;99.90;;;;;;5093247;28;20575;-34
2022/12/14 11:34:29;;;;;;;16.73;11.32;;;-1.40;99.90;;;;;;5105180;28;20058;-29
2022/12/14 11:36:55;;;;;;;14.35;10.00;;;-1.40;99.90;;;;;;5101536;28;20560;-31
2022/12/14 11:39:23;;;;;;;19.55;9.80;;;-1.30;99.90;;;;;;5101924;28;20013;-29
2022/12/14 11:41:57;;;;;;;17.35;9.52;;;-1.30;99.90;;;;;;5100407;28;20075;-32
2022/12/14 11:44:25;;;;;;;16.83;9.60;;;-1.30;99.90;;;;;;5102190;28;20031;-30
2022/12/14 11:47:02;;;;;;;15.23;8.93;;;-1.30;99.90;;;;;;5104926;27;20056;-32
2022/12/14 11:49:45;;;;;;;14.00;9.75;;;-1.20;99.90;;;;;;5107783;27;20392;-32
2022/12/14 11:52:17;;;;;;;11.38;7.97;;;-1.20;99.90;;;;;;5100082;27;20032;-29
2022/12/14 11:54:45;;;;;;;10.90;8.13;;;-1.20;99.90;;;;;;5106219;28;20066;-30
2022/12/14 11:57:11;;;;;;;;;;;-1.20;99.90;;;;;;5100826;27;20039;-30
2022/12/14 11:59:51;;;;;;;9.82;7.03;;;-1.20;99.90;;;;;;5109793;27;19915;-30
2022/12/14 12:02:35;;;;;;;13.23;7.80;;;-1.10;99.90;;;;;;5106008;27;20032;-31
2022/12/14 12:05:30;;;;;;;10.55;7.80;;;-1.10;99.90;;;;;;5107533;27;20027;-33
2022/12/14 12:07:58;;;;;;;13.60;8.05;;;-1.10;99.90;;;;;;5095295;27;20059;-32
2022/12/14 12:10:32;;;;;;;12.13;8.52;;;-1.10;99.90;;;;;;5100276;27;20069;-30
2022/12/14 12:13:06;;;;;;;12.93;8.30;;;-1.10;99.90;;;;;;5103905;28;20604;-29
2022/12/14 12:15:37;;;;;;;13.85;10.80;;;-1.10;99.90;;;;;;5103387;28;20028;-30
2022/12/14 12:18:44;;;;;;;10.52;9.07;;;-1.10;99.90;;;;;;5103443;28;20027;-30
2022/12/14 12:21:26;;;;;;;15.30;9.45;;;-1.10;99.90;;;;;;5096646;27;20052;-30
2022/12/14 12:23:58;;;;;;;21.33;10.45;;;-1.00;99.90;;;;;;5101826;28;20030;-31
2022/12/14 12:26:26;;;;;;;10.57;7.55;;;-1.00;99.90;;;;;;5098709;28;20028;-32
2022/12/14 12:29:01;;;;;;;12.00;8.23;;;-1.00;99.90;;;;;;5102856;28;20030;-31
2022/12/14 12:31:55;;;;;;;9.15;7.07;;;-0.90;99.90;;;;;;5094232;28;20077;-33
2022/12/14 12:34:37;;;;;;;9.93;7.68;;;-0.90;99.90;;;;;;5090703;28;20043;-30
2022/12/14 12:37:11;;;;;;;10.95;6.43;;;-0.80;99.90;;;;;;5099262;28;20031;-33
2022/12/14 12:39:41;;;;;;;9.98;7.43;;;-0.80;99.90;;;;;;5096499;28;20115;-31
2022/12/14 12:42:33;;;;;;;14.93;8.45;;;-0.70;99.90;;;;;;5100413;28;20027;-30
2022/12/14 12:45:14;;;;;;;10.40;7.07;;;-0.60;99.90;;;;;;5070041;28;20443;-30
2022/12/14 12:47:50;;;;;;;9.35;7.03;;;-0.60;99.90;;;;;;5104740;27;20059;-30
2022/12/14 12:50:23;;;;;;;10.50;7.10;;;-0.50;99.90;;;;;;5104325;28;20023;-32
2022/12/14 12:53:30;;;;;;;11.65;6.88;;;-0.50;99.90;;;;;;5097533;27;20101;-30
2022/12/14 12:56:15;;;;;;;13.00;7.40;;;-0.40;99.90;;;;;;5057037;28;20771;-30
2022/12/14 12:58:43;;;;;;;14.50;8.43;;;-0.40;99.90;;;;;;5101586;27;20489;-33
2022/12/14 13:01:15;;;;;;;13.05;7.85;;;-0.40;99.90;;;;;;5099978;28;20085;-32
2022/12/14 13:03:47;;;;;;;9.95;7.63;;;-0.40;99.90;;;;;;5098031;28;20055;-31
2022/12/14 13:06:23;;;;;;;15.77;7.13;;;-0.50;99.90;;;;;;5097019;28;20024;-30
2022/12/14 13:08:55;;;;;;;11.57;8.30;;;-0.50;99.90;;;;;;5103908;28;20020;-33
2022/12/14 13:11:30;;;;;;;10.07;6.82;;;-0.40;99.90;;;;;;5102995;28;20027;-31
2022/12/14 13:14:01;;;;;;;10.07;7.57;;;-0.40;99.90;;;;;;5104914;28;20127;-31
2022/12/14 13:16:37;;;;;;;9.90;7.95;;;-0.40;99.90;;;;;;5100334;28;20055;-32